Time;durP1;ratioP1;P1;durP2;ratioP2;P2;SDS_P1;SDS_P2;PMS_P1;PMS_P2;Temp;Humidity;BMP_temperature;BMP_pressure;BME280_temperature;BME280_humidity;BME280_pressure;Samples;Min_cycle;Max_cycle;Signal;HPM_P1;HPM_P2
2021/09/30 00:00:42;;;;;;;9.40;1.92;;;10.80;99.90;;;;;;4842667;29;20033;-85
2021/09/30 00:03:12;;;;;;;14.88;1.70;;;10.80;99.90;;;;;;4846893;29;20044;-85
2021/09/30 00:05:38;;;;;;;8.95;1.40;;;10.70;99.90;;;;;;4862552;29;20052;-84
2021/09/30 00:08:12;;;;;;;9.80;1.55;;;10.70;99.90;;;;;;4846500;29;20057;-84
2021/09/30 00:11:04;;;;;;;9.43;1.45;;;10.30;99.90;;;;;;4857043;29;20118;-83
2021/09/30 00:13:43;;;;;;;16.52;2.03;;;10.60;99.90;;;;;;4858469;29;20467;-84
2021/09/30 00:33:03;;;;;;;12.73;1.88;;;10.50;99.90;;;;;;4848743;29;20464;-83
2021/09/30 00:51:52;;;;;;;10.93;1.80;;;11.10;99.90;;;;;;4852418;29;20058;-83
2021/09/30 02:20:25;;;;;;;10.85;1.90;;;9.90;99.90;;;;;;4855822;29;20392;-82
2021/09/30 03:00:08;;;;;;;10.63;1.92;;;10.40;99.90;;;;;;4859056;29;20053;-83
2021/09/30 03:02:48;;;;;;;13.48;1.83;;;10.20;99.90;;;;;;4846361;29;20102;-83
2021/09/30 03:05:23;;;;;;;15.20;1.73;;;10.20;99.90;;;;;;4860393;29;20037;-83
2021/09/30 03:07:52;;;;;;;12.65;1.85;;;10.40;99.90;;;;;;4861418;29;20097;-83
2021/09/30 03:10:25;;;;;;;13.90;2.00;;;10.20;99.90;;;;;;4859862;29;20041;-82
2021/09/30 03:12:53;;;;;;;11.23;1.63;;;10.20;99.90;;;;;;4857870;29;20155;-82
2021/09/30 03:15:36;;;;;;;13.13;1.95;;;9.80;99.90;;;;;;4860812;29;20085;-82
2021/09/30 03:23:39;;;;;;;8.77;1.67;;;10.80;99.90;;;;;;4829300;29;20050;-83
2021/09/30 03:26:05;;;;;;;15.50;1.80;;;9.90;99.90;;;;;;4844645;29;20054;-83
2021/09/30 03:28:32;;;;;;;11.52;1.38;;;11.00;99.90;;;;;;4843702;29;20048;-83
2021/09/30 03:31:05;;;;;;;13.52;1.85;;;10.10;99.90;;;;;;4856730;29;20105;-83
2021/09/30 03:33:31;;;;;;;10.15;1.88;;;10.10;99.90;;;;;;4859452;29;20045;-83
2021/09/30 03:35:57;;;;;;;17.45;1.50;;;10.60;99.90;;;;;;4844353;29;20052;-83
2021/09/30 03:38:23;;;;;;;12.85;1.83;;;10.10;99.90;;;;;;4844840;29;20141;-83
2021/09/30 03:40:50;;;;;;;13.10;1.80;;;10.10;99.90;;;;;;4862372;29;20071;-82
2021/09/30 03:43:19;;;;;;;11.05;1.65;;;10.60;99.90;;;;;;4844921;29;20041;-83
2021/09/30 03:45:52;;;;;;;11.98;1.73;;;10.10;99.90;;;;;;4879080;29;20053;-83
2021/09/30 03:48:18;;;;;;;10.60;1.52;;;10.50;99.90;;;;;;4840162;29;20113;-83
2021/09/30 03:51:02;;;;;;;14.93;2.13;;;9.50;99.90;;;;;;4845853;29;20049;-83
2021/09/30 04:01:31;;;;;;;11.75;1.60;;;10.20;99.90;;;;;;4862787;29;20045;-83
2021/09/30 04:03:58;;;;;;;10.43;1.70;;;10.20;99.90;;;;;;4842866;29;20128;-83
2021/09/30 04:06:56;;;;;;;12.32;1.70;;;10.20;99.90;;;;;;4878534;29;20120;-83
2021/09/30 04:09:27;;;;;;;8.48;1.40;;;10.20;99.90;;;;;;4834840;29;20055;-83
2021/09/30 04:11:58;;;;;;;8.63;1.40;;;10.20;99.90;;;;;;4862590;29;20405;-82
2021/09/30 04:14:28;;;;;;;13.52;1.63;;;11.10;99.90;;;;;;4847358;29;20045;-83
2021/09/30 04:16:57;;;;;;;12.65;2.05;;;10.20;99.90;;;;;;4834272;29;20104;-83
2021/09/30 04:19:26;;;;;;;11.60;1.77;;;10.20;99.90;;;;;;4879042;29;20140;-82
2021/09/30 04:21:54;;;;;;;8.88;1.50;;;10.20;99.90;;;;;;4860897;29;20045;-82
2021/09/30 04:24:23;;;;;;;8.73;1.63;;;10.40;99.90;;;;;;4871494;29;20112;-82
2021/09/30 04:26:51;;;;;;;11.05;1.63;;;10.40;99.90;;;;;;4862159;29;20037;-82
2021/09/30 04:29:17;;;;;;;12.07;2.15;;;10.00;99.90;;;;;;4846865;29;20543;-83
2021/09/30 04:31:43;;;;;;;12.60;1.98;;;10.20;99.90;;;;;;4830669;29;20505;-83
2021/09/30 04:34:09;;;;;;;9.38;1.80;;;10.20;99.90;;;;;;4862070;29;20037;-82
2021/09/30 04:36:38;;;;;;;10.00;1.63;;;10.20;99.90;;;;;;4844122;29;20042;-82
2021/09/30 04:39:05;;;;;;;10.93;2.13;;;10.20;99.90;;;;;;4857586;29;20072;-83
2021/09/30 04:41:33;;;;;;;13.70;2.08;;;10.00;99.90;;;;;;4862187;29;20447;-83
2021/09/30 04:44:03;;;;;;;9.63;1.50;;;10.10;99.90;;;;;;4878509;29;20033;-83
2021/09/30 04:46:29;;;;;;;12.38;1.77;;;10.10;99.90;;;;;;4846506;29;20052;-83
2021/09/30 04:48:55;;;;;;;12.10;1.67;;;10.10;99.90;;;;;;4859899;29;20049;-83
2021/09/30 04:51:23;;;;;;;9.25;1.33;;;10.10;99.90;;;;;;4857054;29;20041;-83
2021/09/30 04:53:49;;;;;;;10.65;1.48;;;10.10;99.90;;;;;;4841800;29;20092;-82
2021/09/30 04:56:15;;;;;;;7.32;1.48;;;10.10;99.90;;;;;;4864932;29;20052;-82
2021/09/30 04:58:41;;;;;;;9.23;1.27;;;10.10;99.90;;;;;;4850297;29;20037;-83
2021/09/30 05:01:07;;;;;;;10.63;1.35;;;10.10;99.90;;;;;;4850371;29;20521;-82
2021/09/30 05:03:33;;;;;;;7.78;1.48;;;10.10;99.90;;;;;;4879737;29;20173;-82
2021/09/30 05:06:01;;;;;;;12.40;1.55;;;10.10;99.90;;;;;;4864215;29;20056;-82
2021/09/30 05:08:32;;;;;;;6.18;1.35;;;10.50;99.90;;;;;;4864041;29;20072;-82
2021/09/30 05:10:58;;;;;;;12.73;1.90;;;10.80;99.90;;;;;;4848554;29;20053;-82
2021/09/30 05:13:36;;;;;;;8.55;1.90;;;10.10;99.90;;;;;;4864915;29;20573;-82
2021/09/30 05:16:06;;;;;;;7.78;1.40;;;10.20;99.90;;;;;;4833926;29;20147;-83
2021/09/30 05:18:35;;;;;;;11.75;1.40;;;10.20;99.90;;;;;;4881659;29;20101;-83
2021/09/30 05:21:05;;;;;;;7.22;1.20;;;10.30;99.90;;;;;;4856599;29;20044;-82
2021/09/30 05:23:30;;;;;;;8.82;1.30;;;10.40;99.90;;;;;;4876294;29;20101;-82
2021/09/30 05:25:56;;;;;;;13.35;1.52;;;10.20;99.90;;;;;;4849840;29;20040;-82
2021/09/30 05:28:25;;;;;;;6.40;1.40;;;10.20;99.90;;;;;;4849202;29;20060;-82
2021/09/30 05:30:51;;;;;;;7.18;1.63;;;9.80;99.90;;;;;;4863313;29;20037;-82
2021/09/30 05:33:26;;;;;;;8.45;2.10;;;10.20;99.90;;;;;;4849831;29;20100;-82
2021/09/30 05:36:05;;;;;;;10.02;1.95;;;10.90;99.90;;;;;;4864879;29;20048;-81
2021/09/30 05:42:48;;;;;;;11.40;1.60;;;10.20;99.90;;;;;;4853972;29;20105;-77
2021/09/30 05:45:16;;;;;;;9.05;1.50;;;10.50;99.90;;;;;;4845480;29;20106;-74
2021/09/30 05:47:43;;;;;;;7.43;1.60;;;10.30;99.90;;;;;;4845196;29;20128;-74
2021/09/30 05:50:09;;;;;;;8.40;1.60;;;10.30;99.90;;;;;;4843100;29;20049;-74
2021/09/30 05:52:35;;;;;;;8.55;1.38;;;10.30;99.90;;;;;;4837717;29;20049;-73
2021/09/30 05:55:03;;;;;;;11.95;1.73;;;10.30;99.90;;;;;;4856508;29;20052;-77
2021/09/30 05:57:30;;;;;;;7.22;1.40;;;10.40;99.90;;;;;;4843962;29;20072;-74
2021/09/30 06:00:03;;;;;;;6.35;1.10;;;10.40;99.90;;;;;;4844790;29;20410;-76
2021/09/30 06:04:17;;;;;;;9.60;1.80;;;10.30;99.90;;;;;;4832593;29;20042;-76
2021/09/30 06:11:03;;;;;;;10.77;1.58;;;10.30;99.90;;;;;;4823998;29;20061;-77
2021/09/30 06:15:55;;;;;;;13.25;2.00;;;10.20;99.90;;;;;;4860632;29;20399;-72
2021/09/30 06:18:21;;;;;;;9.18;1.65;;;10.30;99.90;;;;;;4858698;29;20042;-72
2021/09/30 06:20:46;;;;;;;10.85;1.70;;;10.30;99.90;;;;;;4861087;29;20076;-75
2021/09/30 06:23:13;;;;;;;11.30;1.88;;;10.30;99.90;;;;;;4845888;29;20490;-76
2021/09/30 06:25:38;;;;;;;10.00;2.17;;;10.30;99.90;;;;;;4859087;29;20048;-80
2021/09/30 06:28:05;;;;;;;7.30;1.52;;;10.20;99.90;;;;;;4838500;29;20045;-74
2021/09/30 06:30:31;;;;;;;12.93;1.90;;;10.30;99.90;;;;;;4861552;29;20052;-75
2021/09/30 06:32:57;;;;;;;9.85;1.88;;;10.30;99.90;;;;;;4864051;29;20475;-75
2021/09/30 06:35:26;;;;;;;12.38;1.80;;;10.20;99.90;;;;;;4861854;29;20398;-74
2021/09/30 06:37:52;;;;;;;10.77;1.88;;;10.80;99.90;;;;;;4837979;29;20045;-76
2021/09/30 06:40:18;;;;;;;8.90;1.63;;;10.30;99.90;;;;;;4844188;29;20053;-73
2021/09/30 06:42:43;;;;;;;10.73;1.98;;;10.60;99.90;;;;;;4861600;29;20061;-73
2021/09/30 06:45:09;;;;;;;8.88;1.80;;;10.30;99.90;;;;;;4861365;29;20034;-72
2021/09/30 06:47:37;;;;;;;12.05;2.00;;;10.30;99.90;;;;;;4858072;29;20120;-76
2021/09/30 06:50:10;;;;;;;10.68;2.75;;;10.30;99.90;;;;;;4871755;29;20590;-76
2021/09/30 06:52:36;;;;;;;7.78;1.92;;;10.30;99.90;;;;;;4849695;29;20455;-76
2021/09/30 06:55:02;;;;;;;9.00;1.60;;;10.40;99.90;;;;;;4869499;29;20065;-76
2021/09/30 06:57:28;;;;;;;10.63;1.83;;;10.30;99.90;;;;;;4850548;29;20073;-79
2021/09/30 06:59:58;;;;;;;10.98;2.00;;;10.40;99.90;;;;;;4860646;29;20056;-79
2021/09/30 07:02:24;;;;;;;12.35;2.40;;;10.40;99.90;;;;;;4859343;29;20045;-79
2021/09/30 07:04:50;;;;;;;12.25;2.03;;;10.40;99.90;;;;;;4861959;29;20170;-79
2021/09/30 07:07:16;;;;;;;12.38;2.38;;;10.60;99.90;;;;;;4861055;29;20060;-79
2021/09/30 07:09:42;;;;;;;12.90;2.47;;;10.50;99.90;;;;;;4861495;29;20128;-79
2021/09/30 07:12:08;;;;;;;9.98;2.05;;;10.50;99.90;;;;;;4844977;29;20093;-79
2021/09/30 07:14:33;;;;;;;12.70;2.45;;;10.50;99.90;;;;;;4814770;29;20045;-79
2021/09/30 07:16:59;;;;;;;17.67;2.20;;;10.50;99.90;;;;;;4860360;29;20048;-78
2021/09/30 07:19:25;;;;;;;14.02;2.22;;;10.60;99.90;;;;;;4860307;29;20057;-78
2021/09/30 07:21:51;;;;;;;9.88;2.03;;;10.60;99.90;;;;;;4860269;29;20069;-77
2021/09/30 07:24:17;;;;;;;11.55;1.95;;;10.70;99.90;;;;;;4852640;29;20053;-78
2021/09/30 07:26:43;;;;;;;7.07;1.70;;;10.70;99.90;;;;;;4841120;29;20053;-78
2021/09/30 07:29:09;;;;;;;17.15;2.17;;;10.70;99.90;;;;;;4853800;29;20523;-81
2021/09/30 07:31:35;;;;;;;11.50;1.75;;;10.80;99.90;;;;;;4845514;29;20045;-79
2021/09/30 07:34:01;;;;;;;17.00;2.55;;;10.80;99.90;;;;;;4827050;29;20056;-79
2021/09/30 07:36:27;;;;;;;12.73;2.13;;;10.80;99.90;;;;;;4859752;29;20101;-73
2021/09/30 07:38:52;;;;;;;12.88;2.25;;;10.90;99.90;;;;;;4871203;29;20154;-73
2021/09/30 07:41:19;;;;;;;15.98;1.95;;;10.90;99.90;;;;;;4858318;29;20148;-73
2021/09/30 07:43:44;;;;;;;9.20;2.08;;;11.00;99.90;;;;;;4860020;29;20512;-73
2021/09/30 07:46:10;;;;;;;15.23;1.88;;;11.40;99.90;;;;;;4860465;29;20042;-73
2021/09/30 07:48:36;;;;;;;15.23;2.95;;;11.00;99.90;;;;;;4860455;29;20094;-73
2021/09/30 07:51:02;;;;;;;9.98;2.10;;;11.00;99.90;;;;;;4857215;29;20041;-73
2021/09/30 07:53:28;;;;;;;13.10;2.63;;;11.10;99.90;;;;;;4862385;29;20049;-73
2021/09/30 07:55:54;;;;;;;15.48;2.13;;;11.20;99.90;;;;;;4837306;29;20486;-73
2021/09/30 07:58:20;;;;;;;14.93;2.35;;;11.20;99.90;;;;;;4864032;29;20410;-73
2021/09/30 08:00:47;;;;;;;17.25;2.17;;;11.30;99.90;;;;;;4856612;29;20054;-73
2021/09/30 08:03:13;;;;;;;17.65;2.40;;;11.30;99.90;;;;;;4856948;29;20090;-74
2021/09/30 08:05:38;;;;;;;15.10;2.85;;;11.40;99.90;;;;;;4858793;29;20375;-74
2021/09/30 08:08:09;;;;;;;19.55;2.13;;;11.40;99.90;;;;;;4865258;29;20056;-76
2021/09/30 08:10:36;;;;;;;14.13;2.50;;;11.50;99.90;;;;;;4846061;29;20114;-74
2021/09/30 08:13:02;;;;;;;12.38;2.08;;;11.60;99.90;;;;;;4831125;29;20487;-74
2021/09/30 08:15:30;;;;;;;12.20;2.38;;;11.50;99.90;;;;;;4860199;29;20038;-74
2021/09/30 08:17:56;;;;;;;10.00;2.20;;;11.60;99.90;;;;;;4856929;29;20037;-72
2021/09/30 08:20:22;;;;;;;10.40;2.30;;;11.60;99.90;;;;;;4854507;29;20076;-71
2021/09/30 08:22:49;;;;;;;10.27;2.10;;;11.70;99.90;;;;;;4856752;29;20077;-71
2021/09/30 08:25:15;;;;;;;22.48;2.70;;;11.70;99.90;;;;;;4856139;29;20528;-72
2021/09/30 08:27:44;;;;;;;14.32;2.40;;;11.70;99.90;;;;;;4855456;29;20073;-72
2021/09/30 08:30:13;;;;;;;13.02;2.58;;;11.80;99.90;;;;;;4855340;29;20117;-72
2021/09/30 08:32:39;;;;;;;13.00;2.33;;;11.80;99.90;;;;;;4824300;29;20050;-72
2021/09/30 08:35:06;;;;;;;16.42;2.40;;;11.90;99.90;;;;;;4856224;29;20148;-79
2021/09/30 08:37:32;;;;;;;17.58;2.25;;;11.90;99.90;;;;;;4856041;29;20033;-79
2021/09/30 08:39:58;;;;;;;16.88;2.42;;;12.00;99.90;;;;;;4857096;29;20133;-78
2021/09/30 08:42:24;;;;;;;18.35;2.85;;;12.00;99.90;;;;;;4839903;29;20144;-79
2021/09/30 08:44:54;;;;;;;18.75;2.83;;;12.10;99.90;;;;;;4855791;29;20561;-78
2021/09/30 08:47:21;;;;;;;21.10;2.33;;;12.10;99.90;;;;;;4851246;29;20094;-78
2021/09/30 08:49:47;;;;;;;16.35;2.10;;;12.20;99.90;;;;;;4841735;29;20109;-72
2021/09/30 08:52:15;;;;;;;14.10;2.10;;;12.30;99.90;;;;;;4841763;29;20044;-72
2021/09/30 08:54:41;;;;;;;13.65;2.22;;;12.30;99.90;;;;;;4858441;29;20045;-76
2021/09/30 08:57:07;;;;;;;15.23;2.88;;;12.30;99.90;;;;;;4857302;29;20053;-77
2021/09/30 08:59:34;;;;;;;15.60;2.50;;;12.40;99.90;;;;;;4855539;29;20073;-77
2021/09/30 09:02:09;;;;;;;14.13;2.72;;;12.50;99.90;;;;;;4856655;29;20085;-77
2021/09/30 09:04:36;;;;;;;;;;;12.50;99.90;;;;;;4855563;29;20057;-77
2021/09/30 09:07:05;;;;;;;;;;;12.50;99.90;;;;;;4857467;29;20430;-77
2021/09/30 09:09:31;;;;;;;15.50;2.72;;;12.60;99.90;;;;;;4857925;29;19920;-77
2021/09/30 09:12:08;;;;;;;11.32;2.05;;;12.60;99.90;;;;;;4856079;29;20106;-77
2021/09/30 09:14:39;;;;;;;10.38;2.00;;;12.70;99.90;;;;;;4855953;29;20402;-77
2021/09/30 09:17:14;;;;;;;12.23;2.28;;;13.30;99.90;;;;;;4855354;29;20051;-77
2021/09/30 09:19:46;;;;;;;8.57;2.13;;;12.80;99.90;;;;;;4853821;29;20058;-79
2021/09/30 09:22:14;;;;;;;12.30;2.05;;;12.90;99.90;;;;;;4854703;29;20058;-79
2021/09/30 09:25:01;;;;;;;11.57;1.92;;;13.00;99.90;;;;;;4856068;29;20098;-78
2021/09/30 09:27:54;;;;;;;13.18;2.05;;;13.00;99.90;;;;;;4856893;29;20121;-78
2021/09/30 09:30:49;;;;;;;7.97;1.73;;;13.00;99.90;;;;;;4855471;29;20683;-71
2021/09/30 09:33:19;;;;;;;9.60;1.90;;;13.10;99.90;;;;;;4840043;29;20072;-71
2021/09/30 09:35:46;;;;;;;12.98;1.80;;;13.20;99.90;;;;;;4854654;29;20045;-73
2021/09/30 09:38:18;;;;;;;11.95;1.77;;;13.10;99.90;;;;;;4858103;29;20045;-72
2021/09/30 09:40:44;;;;;;;9.02;1.98;;;13.10;99.90;;;;;;4859072;29;20100;-78
2021/09/30 09:43:42;;;;;;;7.20;1.50;;;13.10;99.90;;;;;;4859454;29;20065;-78
2021/09/30 09:46:10;;;;;;;8.52;2.13;;;13.10;99.90;;;;;;4859608;29;20250;-78
2021/09/30 09:48:36;;;;;;;14.57;1.65;;;13.20;99.90;;;;;;4843626;29;20405;-79
2021/09/30 09:51:07;;;;;;;7.35;1.60;;;13.30;99.90;;;;;;4854760;29;20056;-85
2021/09/30 09:53:34;;;;;;;10.88;1.95;;;13.50;99.90;;;;;;4844262;29;20037;-85
2021/09/30 09:56:15;;;;;;;10.77;2.63;;;13.50;99.90;;;;;;4860752;29;20424;-85
2021/09/30 09:58:55;;;;;;;10.30;1.88;;;13.50;99.90;;;;;;4845245;29;20048;-85
2021/09/30 10:01:27;;;;;;;14.77;1.67;;;13.60;99.90;;;;;;4859735;29;20110;-85
2021/09/30 10:03:59;;;;;;;12.60;1.60;;;13.50;99.90;;;;;;4846031;29;20050;-85
2021/09/30 10:06:27;;;;;;;11.27;2.17;;;13.50;99.90;;;;;;4862580;29;20041;-85
2021/09/30 10:08:53;;;;;;;10.52;1.83;;;13.50;99.90;;;;;;4844244;29;20109;-86
2021/09/30 10:11:23;;;;;;;9.40;1.80;;;13.50;99.90;;;;;;4861002;29;20055;-86
2021/09/30 10:13:49;;;;;;;11.45;2.10;;;13.40;99.90;;;;;;4862038;29;20045;-86
2021/09/30 10:16:26;;;;;;;12.02;1.98;;;13.50;99.90;;;;;;4859499;29;20052;-85
2021/09/30 10:19:07;;;;;;;11.70;1.75;;;13.50;99.90;;;;;;4858918;29;20049;-85
2021/09/30 10:21:34;;;;;;;12.48;1.85;;;13.50;99.90;;;;;;4859994;29;20046;-86
2021/09/30 10:24:06;;;;;;;9.55;1.98;;;13.60;99.90;;;;;;4859710;29;20120;-86
2021/09/30 10:26:44;;;;;;;10.52;1.77;;;13.50;99.90;;;;;;4862258;29;20042;-86
2021/09/30 10:29:40;;;;;;;13.50;1.85;;;13.30;99.90;;;;;;4861329;29;20232;-85
2021/09/30 10:32:07;;;;;;;12.20;1.77;;;13.70;99.90;;;;;;4863302;29;20063;-85
2021/09/30 10:34:36;;;;;;;8.93;1.77;;;13.70;99.90;;;;;;4860586;29;20086;-86
2021/09/30 10:37:25;;;;;;;8.82;1.52;;;13.80;99.90;;;;;;4863759;29;20045;-86
2021/09/30 10:40:16;;;;;;;7.05;1.42;;;13.80;99.90;;;;;;4865317;29;20056;-87
2021/09/30 10:42:56;;;;;;;8.95;1.50;;;13.80;99.90;;;;;;4848515;29;20045;-86
2021/09/30 10:45:37;;;;;;;9.40;2.00;;;13.90;99.90;;;;;;4864186;29;20049;-86
2021/09/30 10:48:24;;;;;;;8.80;1.60;;;13.70;99.90;;;;;;4862123;29;20041;-86
2021/09/30 10:51:12;;;;;;;10.10;1.67;;;13.90;99.90;;;;;;4863843;29;20132;-79
2021/09/30 10:53:47;;;;;;;8.68;1.60;;;13.90;99.90;;;;;;4861219;29;20037;-79
2021/09/30 10:56:31;;;;;;;9.07;1.65;;;13.90;99.90;;;;;;4860625;29;20037;-79
2021/09/30 10:59:00;;;;;;;11.27;1.60;;;14.00;99.90;;;;;;4859145;29;20052;-80
2021/09/30 11:01:26;;;;;;;12.65;1.80;;;14.00;99.90;;;;;;4874661;29;20049;-81
2021/09/30 11:04:04;;;;;;;6.25;1.20;;;14.10;99.90;;;;;;4860209;29;20155;-80
2021/09/30 11:06:58;;;;;;;10.30;1.52;;;14.10;99.90;;;;;;4845906;29;20041;-81
2021/09/30 11:09:26;;;;;;;9.98;1.90;;;13.80;99.90;;;;;;4843411;29;20197;-80
2021/09/30 11:12:07;;;;;;;11.70;1.98;;;14.20;99.90;;;;;;4846090;29;20052;-80
2021/09/30 11:14:33;;;;;;;8.68;1.50;;;14.10;99.90;;;;;;4859607;29;20080;-80
2021/09/30 11:16:59;;;;;;;10.10;1.40;;;14.10;99.90;;;;;;4830456;29;20045;-80
2021/09/30 11:19:38;;;;;;;9.85;2.10;;;14.10;99.90;;;;;;4862925;29;20064;-80
2021/09/30 11:22:06;;;;;;;10.20;1.58;;;14.20;99.90;;;;;;4854954;29;20032;-80
2021/09/30 11:24:41;;;;;;;10.68;1.60;;;14.20;99.90;;;;;;4861131;29;20489;-80
2021/09/30 11:27:10;;;;;;;8.98;1.30;;;14.10;99.90;;;;;;4847451;29;20072;-81
2021/09/30 11:29:36;;;;;;;8.35;1.33;;;14.10;99.90;;;;;;4860236;29;20044;-81
2021/09/30 11:32:02;;;;;;;9.93;1.60;;;14.10;99.90;;;;;;4858794;29;20124;-81
2021/09/30 11:34:28;;;;;;;9.23;1.40;;;14.10;99.90;;;;;;4862796;29;20052;-81
2021/09/30 11:36:56;;;;;;;10.23;1.73;;;14.20;99.90;;;;;;4878048;29;20486;-81
2021/09/30 11:39:29;;;;;;;9.23;1.27;;;14.20;99.90;;;;;;4829295;29;20064;-81
2021/09/30 11:41:55;;;;;;;7.32;1.67;;;14.30;99.90;;;;;;4856722;29;20049;-80
2021/09/30 11:44:21;;;;;;;6.22;1.30;;;14.30;99.90;;;;;;4856494;29;20049;-81
2021/09/30 11:46:53;;;;;;;9.13;1.75;;;14.30;99.90;;;;;;4854969;29;20045;-81
2021/09/30 11:49:19;;;;;;;8.88;1.30;;;14.40;99.90;;;;;;4856276;29;20037;-81
2021/09/30 11:51:54;;;;;;;6.22;1.33;;;14.40;99.90;;;;;;4841174;29;20056;-81
2021/09/30 11:54:22;;;;;;;7.22;1.55;;;14.50;99.90;;;;;;4857914;29;20042;-81
2021/09/30 11:56:50;;;;;;;6.45;1.30;;;14.50;99.90;;;;;;4858030;29;20514;-81
2021/09/30 11:59:20;;;;;;;7.05;1.80;;;14.50;99.90;;;;;;4838944;29;20516;-80
2021/09/30 12:02:07;;;;;;;9.75;1.92;;;14.50;99.90;;;;;;4850399;29;20053;-84
2021/09/30 12:04:45;;;;;;;10.65;1.70;;;14.50;99.90;;;;;;4855100;29;20049;-84
2021/09/30 12:07:21;;;;;;;5.82;1.25;;;14.50;99.90;;;;;;4857251;29;20038;-83
2021/09/30 12:09:49;;;;;;;9.93;1.42;;;14.50;99.90;;;;;;4853119;29;20068;-82
2021/09/30 12:12:15;;;;;;;6.63;1.45;;;14.50;99.90;;;;;;4848442;29;20498;-82
2021/09/30 12:14:42;;;;;;;6.75;1.20;;;14.50;99.90;;;;;;4853393;29;20053;-83
2021/09/30 12:17:14;;;;;;;6.32;1.27;;;14.50;99.90;;;;;;4851312;29;20529;-83
2021/09/30 12:19:44;;;;;;;12.40;1.67;;;14.60;99.90;;;;;;4851441;29;20047;-83
2021/09/30 12:22:15;;;;;;;9.82;1.58;;;14.50;99.90;;;;;;4854798;29;20444;-82
2021/09/30 12:24:49;;;;;;;8.00;1.42;;;14.50;99.90;;;;;;4855384;29;20057;-81
2021/09/30 12:27:16;;;;;;;15.07;1.80;;;14.50;99.90;;;;;;4847472;29;21408;-82
2021/09/30 12:29:44;;;;;;;8.02;1.38;;;14.60;99.90;;;;;;4862280;29;20490;-82
2021/09/30 12:32:16;;;;;;;10.05;1.80;;;14.60;99.90;;;;;;4874845;29;20048;-78
2021/09/30 12:34:59;;;;;;;6.22;1.80;;;14.60;99.90;;;;;;4859430;29;20097;-79
2021/09/30 12:37:31;;;;;;;11.88;1.45;;;14.60;99.90;;;;;;4840329;29;20037;-79
2021/09/30 12:40:14;;;;;;;9.10;1.55;;;14.60;99.90;;;;;;4839847;29;20050;-79
2021/09/30 12:42:59;;;;;;;8.77;1.30;;;14.60;99.90;;;;;;4866419;29;20846;-79
2021/09/30 12:45:28;;;;;;;8.60;1.52;;;14.60;99.90;;;;;;4855697;29;20153;-79
2021/09/30 12:48:11;;;;;;;9.10;1.70;;;14.70;99.90;;;;;;4839973;29;20600;-79
2021/09/30 12:50:49;;;;;;;10.02;1.70;;;14.80;99.90;;;;;;4856062;29;20048;-79
2021/09/30 12:53:18;;;;;;;13.75;1.67;;;14.80;99.90;;;;;;4855921;29;20049;-80
2021/09/30 12:55:44;;;;;;;9.32;1.40;;;14.70;99.90;;;;;;4856091;29;20081;-79
2021/09/30 12:58:47;;;;;;;12.60;1.92;;;14.70;99.90;;;;;;4855943;29;20038;-79
2021/09/30 13:01:25;;;;;;;7.53;1.83;;;14.70;99.90;;;;;;4846710;29;20072;-79
2021/09/30 13:04:13;;;;;;;6.95;1.90;;;14.70;99.90;;;;;;4854792;29;20124;-80
2021/09/30 13:07:01;;;;;;;8.40;1.98;;;14.70;99.90;;;;;;4856125;29;20465;-78
2021/09/30 13:09:31;;;;;;;11.20;1.80;;;14.60;99.90;;;;;;4856059;29;20049;-77
2021/09/30 13:12:10;;;;;;;9.73;2.00;;;14.60;99.90;;;;;;4843478;29;20053;-78
2021/09/30 13:14:48;;;;;;;12.00;1.83;;;14.60;99.90;;;;;;4860679;29;20049;-78
2021/09/30 13:17:24;;;;;;;14.70;2.42;;;14.60;99.90;;;;;;4859154;29;20050;-78
2021/09/30 13:20:06;;;;;;;9.82;1.77;;;14.60;99.90;;;;;;4858044;29;20045;-78
2021/09/30 13:22:37;;;;;;;10.85;2.17;;;14.60;99.90;;;;;;4859519;29;20107;-78
2021/09/30 13:25:09;;;;;;;21.35;2.60;;;14.60;99.90;;;;;;4859374;29;20049;-78
2021/09/30 13:27:39;;;;;;;10.60;1.75;;;14.60;99.90;;;;;;4843151;29;20057;-78
2021/09/30 13:30:11;;;;;;;13.32;2.45;;;14.70;99.90;;;;;;4844145;29;20050;-78
2021/09/30 13:32:38;;;;;;;12.18;1.90;;;14.70;99.90;;;;;;4843838;29;20125;-78
2021/09/30 13:35:05;;;;;;;9.68;1.90;;;14.70;99.90;;;;;;4858656;29;20052;-78
2021/09/30 13:37:32;;;;;;;11.55;2.10;;;14.70;99.90;;;;;;4843991;29;20044;-78
2021/09/30 13:39:59;;;;;;;12.05;2.22;;;14.60;99.90;;;;;;4858378;29;20072;-78
2021/09/30 13:42:28;;;;;;;8.85;2.25;;;14.60;99.90;;;;;;4859884;29;20041;-78
2021/09/30 13:44:56;;;;;;;13.02;2.58;;;14.60;99.90;;;;;;4843390;29;20090;-78
2021/09/30 13:47:23;;;;;;;9.45;1.90;;;14.50;99.90;;;;;;4843895;29;20042;-78
2021/09/30 13:49:49;;;;;;;10.20;2.00;;;14.40;99.90;;;;;;4860473;29;20099;-78
2021/09/30 13:52:15;;;;;;;10.00;2.45;;;14.40;99.90;;;;;;4842271;29;20073;-78
2021/09/30 13:54:41;;;;;;;15.13;2.58;;;14.40;99.90;;;;;;4843719;29;20051;-78
2021/09/30 13:57:09;;;;;;;13.45;2.25;;;14.70;99.90;;;;;;4843052;29;20132;-78
2021/09/30 13:59:36;;;;;;;13.18;1.98;;;14.40;99.90;;;;;;4858469;29;20038;-78
2021/09/30 14:02:02;;;;;;;13.40;1.80;;;14.40;99.90;;;;;;4858293;29;20056;-79
2021/09/30 14:04:28;;;;;;;8.55;2.17;;;14.40;99.90;;;;;;4857452;29;20049;-78
2021/09/30 14:06:55;;;;;;;6.65;1.67;;;14.40;99.90;;;;;;4859934;29;20372;-76
2021/09/30 14:09:22;;;;;;;9.45;1.70;;;14.40;99.90;;;;;;4841442;29;20050;-78
2021/09/30 14:11:48;;;;;;;9.55;2.13;;;14.40;99.90;;;;;;4859064;29;20046;-77
2021/09/30 14:14:14;;;;;;;8.70;2.50;;;14.30;99.90;;;;;;4843037;29;20056;-77
2021/09/30 14:16:40;;;;;;;9.23;2.47;;;14.30;99.90;;;;;;4842629;29;20041;-77
2021/09/30 14:19:06;;;;;;;8.10;1.75;;;14.30;99.90;;;;;;4857867;29;20135;-77
2021/09/30 14:21:35;;;;;;;11.18;1.88;;;14.20;99.90;;;;;;4857782;29;20056;-77
2021/09/30 14:24:01;;;;;;;8.88;2.00;;;14.10;99.90;;;;;;4842713;29;20045;-77
2021/09/30 14:26:27;;;;;;;8.63;1.73;;;14.10;99.90;;;;;;4826995;29;20041;-77
2021/09/30 14:28:52;;;;;;;8.25;1.73;;;14.00;99.90;;;;;;4843070;29;20197;-75
2021/09/30 14:31:21;;;;;;;12.57;2.38;;;14.10;99.90;;;;;;4858741;29;20046;-73
2021/09/30 14:33:47;;;;;;;8.05;1.80;;;13.90;99.90;;;;;;4859481;29;20045;-73
2021/09/30 14:36:12;;;;;;;8.65;1.90;;;13.80;99.90;;;;;;4843853;29;20041;-74
2021/09/30 14:38:38;;;;;;;11.55;2.10;;;13.80;99.90;;;;;;4860076;29;20081;-73
2021/09/30 14:41:04;;;;;;;9.63;1.70;;;13.80;99.90;;;;;;4870581;29;20418;-73
2021/09/30 14:43:35;;;;;;;8.57;2.08;;;13.70;99.90;;;;;;4860158;29;20076;-74
2021/09/30 14:46:05;;;;;;;8.98;2.05;;;13.70;99.90;;;;;;4830814;29;20490;-73
2021/09/30 14:48:31;;;;;;;10.45;2.08;;;13.60;99.90;;;;;;4859899;29;20049;-73
2021/09/30 14:50:57;;;;;;;10.65;2.10;;;13.70;99.90;;;;;;4860236;29;20049;-73
2021/09/30 14:53:23;;;;;;;8.70;1.77;;;13.60;99.90;;;;;;4876462;29;20036;-73
2021/09/30 14:55:49;;;;;;;9.05;2.00;;;13.60;99.90;;;;;;4873251;29;20051;-76
2021/09/30 14:58:17;;;;;;;7.05;1.60;;;13.50;99.90;;;;;;4879095;29;20037;-78
2021/09/30 15:00:43;;;;;;;12.43;2.42;;;13.50;99.90;;;;;;4848023;29;20041;-77
2021/09/30 15:03:08;;;;;;;8.07;2.33;;;13.50;99.90;;;;;;4862567;29;20043;-78
2021/09/30 15:05:34;;;;;;;6.13;2.10;;;13.40;99.90;;;;;;4855607;29;20042;-78
2021/09/30 15:08:01;;;;;;;17.70;2.40;;;13.40;99.90;;;;;;4842594;29;20056;-77
2021/09/30 15:10:28;;;;;;;14.98;2.13;;;13.40;99.90;;;;;;4855321;29;20053;-77
2021/09/30 15:12:54;;;;;;;7.90;2.38;;;13.40;99.90;;;;;;4859846;29;20137;-78
2021/09/30 15:15:20;;;;;;;9.35;2.20;;;13.50;99.90;;;;;;4861637;29;20128;-77
2021/09/30 15:17:53;;;;;;;10.60;2.53;;;13.40;99.90;;;;;;4829938;29;20187;-77
2021/09/30 15:23:06;;;;;;;8.55;2.22;;;13.40;99.90;;;;;;4841532;29;20053;-79
2021/09/30 15:25:36;;;;;;;12.15;2.30;;;13.40;99.90;;;;;;4861094;29;20461;-79
2021/09/30 15:28:05;;;;;;;8.32;1.85;;;13.30;99.90;;;;;;4850682;29;20092;-80
2021/09/30 15:30:31;;;;;;;10.45;2.20;;;13.40;99.90;;;;;;4861977;29;20075;-79
2021/09/30 15:32:57;;;;;;;15.13;2.25;;;13.40;99.90;;;;;;4858685;29;20121;-80
2021/09/30 15:35:23;;;;;;;12.57;2.40;;;13.30;99.90;;;;;;4863088;29;20505;-80
2021/09/30 15:37:48;;;;;;;8.85;2.03;;;13.40;99.90;;;;;;4863108;29;20115;-80
2021/09/30 15:40:17;;;;;;;10.05;2.22;;;13.30;99.90;;;;;;4862578;29;20079;-81
2021/09/30 15:42:46;;;;;;;10.32;2.20;;;13.40;99.90;;;;;;4853104;29;20087;-81
2021/09/30 15:45:15;;;;;;;10.43;2.25;;;13.30;99.90;;;;;;4858623;29;20056;-80
2021/09/30 15:47:41;;;;;;;8.48;1.75;;;13.30;99.90;;;;;;4880545;29;20064;-80
2021/09/30 15:50:08;;;;;;;15.23;2.33;;;13.30;99.90;;;;;;4863101;29;20052;-79
2021/09/30 15:52:34;;;;;;;5.97;2.05;;;13.30;99.90;;;;;;4879058;29;20045;-79
2021/09/30 15:55:00;;;;;;;4.72;1.73;;;13.40;99.90;;;;;;4884006;29;20060;-80
2021/09/30 15:57:26;;;;;;;4.72;1.45;;;13.30;99.90;;;;;;4861577;29;20435;-79
2021/09/30 15:59:51;;;;;;;12.50;2.13;;;13.40;99.90;;;;;;4830807;29;20056;-76